Time;durP1;ratioP1;P1;durP2;ratioP2;P2;SDS_P1;SDS_P2;PMS_P1;PMS_P2;Temp;Humidity;BMP_temperature;BMP_pressure;BME280_temperature;BME280_humidity;BME280_pressure;Samples;Min_cycle;Max_cycle;Signal;HPM_P1;HPM_P2
2022/09/15 00:01:40;;;;;;;10.77;7.00;;;11.60;99.90;;;12.17;100.00;97820.41;5028749;27;121594;-72
2022/09/15 00:04:09;;;;;;;12.52;7.22;;;11.50;99.90;;;12.05;100.00;97828.75;5043256;27;122618;-73
2022/09/15 00:06:38;;;;;;;10.82;7.35;;;11.40;99.90;;;11.90;100.00;97826.88;5046453;27;130686;-72
2022/09/15 00:09:08;;;;;;;11.40;6.55;;;11.40;99.90;;;11.83;100.00;97827.53;5066228;27;128915;-72
2022/09/15 00:11:37;;;;;;;12.52;7.05;;;11.30;99.90;;;11.80;100.00;97833.69;5082140;27;120127;-72
2022/09/15 00:14:09;;;;;;;11.27;7.03;;;11.10;99.90;;;11.77;100.00;97828.97;5066899;27;118339;-72
2022/09/15 00:16:38;;;;;;;12.38;7.90;;;11.10;99.90;;;11.74;100.00;97827.75;5081508;27;129830;-72
2022/09/15 00:19:06;;;;;;;10.50;6.50;;;11.00;99.90;;;11.72;100.00;97821.91;5081856;27;129277;-72
2022/09/15 00:21:38;;;;;;;11.57;7.18;;;11.00;99.90;;;11.70;100.00;97818.75;5081785;27;119888;-73
2022/09/15 00:24:07;;;;;;;9.55;6.75;;;10.90;99.90;;;11.64;100.00;97831.06;5081683;27;119927;-72
2022/09/15 00:26:37;;;;;;;10.82;6.72;;;10.80;99.90;;;11.57;100.00;97830.94;5065091;27;129610;-72
2022/09/15 00:29:07;;;;;;;9.70;6.68;;;10.80;99.90;;;11.44;100.00;97828.34;5081288;27;129947;-73
2022/09/15 00:31:36;;;;;;;11.90;6.90;;;10.70;99.90;;;11.34;100.00;97834.34;5081337;27;120020;-72
2022/09/15 00:34:05;;;;;;;10.77;7.28;;;10.60;99.90;;;11.28;100.00;97819.47;5063693;27;119503;-72
2022/09/15 00:36:34;;;;;;;11.00;7.20;;;10.50;99.90;;;11.22;100.00;97826.34;5081263;27;129761;-72
2022/09/15 00:39:04;;;;;;;10.77;7.50;;;10.40;99.90;;;11.13;100.00;97816.47;5081237;27;129546;-72
2022/09/15 00:41:33;;;;;;;12.98;8.30;;;10.30;99.90;;;11.06;100.00;97813.59;5081731;27;119568;-73
2022/09/15 00:44:06;;;;;;;14.45;7.95;;;10.30;99.90;;;11.03;100.00;97813.53;5081848;27;119922;-70
2022/09/15 00:46:39;;;;;;;10.00;7.43;;;10.30;99.90;;;11.04;100.00;97815.91;5083710;27;130130;-72
2022/09/15 00:49:12;;;;;;;9.52;7.55;;;10.40;99.90;;;11.02;100.00;97823.63;5065728;27;129524;-72
2022/09/15 00:51:48;;;;;;;12.98;7.35;;;10.30;99.90;;;10.93;100.00;97814.88;5064857;27;121676;-73
2022/09/15 00:54:23;;;;;;;11.48;7.43;;;10.20;99.90;;;10.82;100.00;97805.72;5081310;27;121801;-72
2022/09/15 00:56:56;;;;;;;10.35;6.85;;;10.20;99.90;;;10.85;100.00;97813.94;5065938;27;129680;-73
2022/09/15 00:59:28;;;;;;;9.90;7.18;;;10.20;99.90;;;10.90;100.00;97816.38;5081354;27;129436;-73
2022/09/15 01:02:08;;;;;;;10.90;7.55;;;10.10;99.90;;;10.94;100.00;97811.03;5081344;27;119525;-74
2022/09/15 01:04:37;;;;;;;11.60;7.68;;;10.10;99.90;;;10.95;100.00;97807.16;5081307;27;120486;-73
2022/09/15 01:07:09;;;;;;;12.18;7.97;;;10.10;99.90;;;10.92;100.00;97807.88;5048500;27;129200;-73
2022/09/15 01:09:44;;;;;;;13.60;7.57;;;10.10;99.90;;;10.86;100.00;97798.44;5081276;27;130406;-73
2022/09/15 01:12:13;;;;;;;13.38;7.82;;;10.10;99.90;;;10.87;100.00;97808.16;5081008;27;119853;-71
2022/09/15 01:14:41;;;;;;;12.15;8.60;;;10.10;99.90;;;10.85;100.00;97807.75;5080806;27;119414;-73
2022/09/15 01:17:20;;;;;;;10.95;8.18;;;10.10;99.90;;;10.85;100.00;97800.38;5082415;27;130850;-71
2022/09/15 01:20:43;;;;;;;13.25;8.20;;;10.10;99.90;;;10.83;100.00;97807.28;5080429;27;129561;-72
2022/09/15 01:24:04;;;;;;;12.90;7.88;;;10.10;99.90;;;10.77;100.00;97802.16;5081133;27;119977;-72
2022/09/15 01:27:17;;;;;;;12.75;8.07;;;10.10;99.90;;;10.79;100.00;97794.44;5065972;27;118852;-72
2022/09/15 01:30:12;;;;;;;12.05;7.68;;;10.10;99.90;;;10.83;100.00;97799.94;5066268;27;129957;-72
2022/09/15 01:33:22;;;;;;;14.48;8.52;;;10.10;99.90;;;10.87;100.00;97800.03;5049821;27;129807;-72
2022/09/15 01:36:03;;;;;;;9.68;7.50;;;10.10;99.90;;;10.91;100.00;97807.09;4997347;28;119567;-72
2022/09/15 01:38:50;;;;;;;13.20;8.45;;;10.10;99.90;;;10.92;100.00;97802.44;5000598;28;119527;-72
2022/09/15 01:41:24;;;;;;;14.63;8.10;;;10.10;99.90;;;10.93;100.00;97801.31;4980239;28;129674;-72
2022/09/15 01:44:02;;;;;;;12.32;7.78;;;10.20;99.90;;;10.94;100.00;97797.47;4998886;28;129566;-72
2022/09/15 01:46:37;;;;;;;12.15;8.32;;;10.20;99.90;;;10.92;100.00;97803.25;5001418;28;121961;-72
2022/09/15 01:49:10;;;;;;;12.82;7.88;;;10.20;99.90;;;10.92;100.00;97799.72;4987104;28;120584;-72
2022/09/15 01:51:41;;;;;;;12.88;8.68;;;10.10;99.90;;;10.84;100.00;97796.06;5003418;28;129982;-72
2022/09/15 01:54:11;;;;;;;13.23;8.30;;;10.10;99.90;;;10.76;100.00;97794.34;5000296;28;129434;-74
2022/09/15 01:56:40;;;;;;;16.80;9.82;;;10.00;99.90;;;10.73;100.00;97789.63;5001556;28;119752;-72
2022/09/15 01:59:09;;;;;;;12.48;8.30;;;10.00;99.90;;;10.68;100.00;97793.41;5000489;28;119522;-72
2022/09/15 02:01:46;;;;;;;12.32;7.88;;;9.90;99.90;;;10.68;100.00;97796.13;4986466;28;130873;-72
2022/09/15 02:04:21;;;;;;;13.30;8.15;;;9.90;99.90;;;10.66;100.00;97801.13;5002979;28;129743;-73
2022/09/15 02:06:56;;;;;;;15.35;8.43;;;9.90;99.90;;;10.60;100.00;97802.53;4987115;28;119051;-72
2022/09/15 02:09:30;;;;;;;13.93;9.18;;;9.90;99.90;;;10.55;100.00;97800.06;5005193;27;119544;-72
2022/09/15 02:12:09;;;;;;;14.90;9.00;;;9.90;99.90;;;10.52;100.00;97795.38;5082268;27;130290;-72
2022/09/15 02:14:49;;;;;;;11.35;8.63;;;9.90;99.90;;;10.48;100.00;97805.34;5051227;27;128343;-73
2022/09/15 02:17:21;;;;;;;14.07;9.55;;;9.90;99.90;;;10.43;100.00;97792.84;5083900;27;119787;-72
2022/09/15 02:19:53;;;;;;;14.30;9.30;;;9.90;99.90;;;10.42;100.00;97791.25;5083821;27;119354;-72
2022/09/15 02:22:26;;;;;;;15.02;9.73;;;9.80;99.90;;;10.41;100.00;97790.50;5083355;27;130035;-73
2022/09/15 02:25:01;;;;;;;13.20;9.35;;;9.80;99.90;;;10.38;100.00;97779.56;5083430;27;130876;-72
2022/09/15 02:27:35;;;;;;;13.95;10.10;;;9.80;1.00;;;10.37;100.00;97784.19;5083701;27;119442;-72
2022/09/15 02:30:10;;;;;;;15.48;9.75;;;9.80;1.00;;;10.36;100.00;97777.22;5068989;27;118825;-73
2022/09/15 02:32:47;;;;;;;16.73;10.75;;;9.70;1.00;;;10.33;100.00;97777.91;5064665;27;130059;-73
2022/09/15 02:35:18;;;;;;;16.85;9.80;;;9.70;1.00;;;10.31;100.00;97774.72;5068041;27;129283;-72
2022/09/15 02:37:48;;;;;;;15.02;10.05;;;9.60;1.00;;;10.27;100.00;97782.00;5082186;27;122012;-74
2022/09/15 02:40:18;;;;;;;20.83;10.30;;;9.60;1.00;;;10.24;100.00;97774.56;5083382;27;122221;-71
2022/09/15 02:42:54;;;;;;;15.68;9.60;;;9.60;1.00;;;10.24;100.00;97775.34;5067859;27;129272;-72
2022/09/15 02:45:24;;;;;;;16.75;10.43;;;9.60;1.00;;;10.23;100.00;97784.59;5083514;27;129438;-71
2022/09/15 02:47:55;;;;;;;15.40;9.38;;;9.50;1.00;;;10.24;100.00;97771.84;5083356;27;119718;-72
2022/09/15 02:50:25;;;;;;;16.75;9.48;;;9.50;1.00;;;10.25;100.00;97776.13;5083194;27;119749;-71
2022/09/15 02:52:54;;;;;;;18.23;10.35;;;9.50;1.00;;;10.22;100.00;97765.97;5082832;27;130194;-72
2022/09/15 02:55:27;;;;;;;13.95;9.77;;;9.50;1.00;;;10.22;100.00;97769.50;5064779;27;129333;-72
2022/09/15 02:57:56;;;;;;;15.88;9.85;;;9.40;1.00;;;10.20;100.00;97768.25;5083187;27;119648;-72
2022/09/15 03:00:27;;;;;;;15.15;10.05;;;9.40;1.00;;;10.15;100.00;97766.59;5068341;27;119539;-72
2022/09/15 03:02:57;;;;;;;15.60;10.70;;;9.40;1.00;;;10.07;100.00;97764.84;5049414;27;128940;-73
2022/09/15 03:05:27;;;;;;;14.43;9.85;;;9.40;1.00;;;9.96;100.00;97759.19;5050338;27;128125;-72
2022/09/15 03:07:57;;;;;;;16.02;9.20;;;9.40;1.00;;;9.90;100.00;97761.34;5082984;27;119635;-72
2022/09/15 03:10:26;;;;;;;14.65;9.98;;;9.30;1.00;;;9.94;100.00;97761.47;5064698;27;119373;-72
2022/09/15 03:12:55;;;;;;;17.83;10.02;;;9.30;1.00;;;9.96;100.00;97761.88;5082522;27;130009;-72
2022/09/15 03:15:26;;;;;;;16.95;11.25;;;9.20;1.00;;;9.92;100.00;97761.00;5067080;27;128337;-72
2022/09/15 03:17:56;;;;;;;18.75;11.82;;;9.30;1.00;;;9.86;100.00;97759.69;5067521;27;119231;-72
2022/09/15 03:20:27;;;;;;;16.00;11.18;;;9.20;1.00;;;9.78;100.00;97753.31;5064743;27;119465;-73
2022/09/15 03:22:56;;;;;;;18.00;11.20;;;9.20;1.00;;;9.76;100.00;97746.69;5067075;27;128849;-73
2022/09/15 03:25:26;;;;;;;17.08;11.55;;;9.20;1.00;;;9.71;100.00;97748.50;5064191;27;130119;-72
2022/09/15 03:27:55;;;;;;;17.70;11.70;;;9.20;1.00;;;9.63;100.00;97741.34;5081391;27;122255;-73
2022/09/15 03:30:24;;;;;;;19.00;11.63;;;9.20;1.00;;;9.58;100.00;97738.84;5082215;27;121624;-72
2022/09/15 03:32:52;;;;;;;18.90;11.40;;;9.10;1.00;;;9.55;100.00;97744.97;5066929;27;129383;-72
2022/09/15 03:35:23;;;;;;;16.58;11.95;;;9.00;1.00;;;9.57;100.00;97736.50;5066664;27;130253;-72
2022/09/15 03:37:52;;;;;;;16.88;10.80;;;9.00;1.00;;;9.57;100.00;97745.44;5079407;27;119708;-72
2022/09/15 03:40:20;;;;;;;18.40;12.65;;;9.00;1.00;;;9.58;100.00;97749.69;5081147;27;119778;-72
2022/09/15 03:42:48;;;;;;;17.50;12.50;;;8.90;1.00;;;9.52;100.00;97740.25;5066709;27;129494;-72
2022/09/15 03:45:17;;;;;;;16.27;11.82;;;9.00;1.00;;;9.45;100.00;97740.06;5066229;27;129905;-73
2022/09/15 03:47:46;;;;;;;18.15;11.55;;;8.90;1.00;;;9.49;100.00;97735.53;5085294;27;121876;-73
2022/09/15 03:50:14;;;;;;;17.23;11.73;;;8.90;1.00;;;9.49;100.00;97739.03;5065628;27;118676;-72
2022/09/15 03:52:45;;;;;;;23.52;14.73;;;8.90;1.00;;;9.42;100.00;97748.91;5080636;27;130654;-73
2022/09/15 03:55:14;;;;;;;15.98;11.07;;;8.90;1.00;;;9.40;100.00;97748.47;5082045;27;129651;-72
2022/09/15 03:57:43;;;;;;;15.30;10.65;;;8.90;1.00;;;9.34;100.00;97756.81;5047610;27;119160;-72
2022/09/15 04:00:14;;;;;;;19.38;12.48;;;8.90;1.00;;;9.33;100.00;97739.00;5081154;27;119371;-72
2022/09/15 04:02:42;;;;;;;16.45;11.07;;;8.90;1.00;;;9.41;100.00;97744.59;5066126;27;130077;-72
2022/09/15 04:05:12;;;;;;;18.67;11.75;;;9.00;1.00;;;9.52;100.00;97740.25;5061908;27;128471;-72
2022/09/15 04:07:41;;;;;;;17.83;12.38;;;9.00;1.00;;;9.64;100.00;97742.88;5045894;27;119133;-72
2022/09/15 04:10:12;;;;;;;22.55;13.23;;;9.10;1.00;;;9.71;100.00;97751.22;5061178;27;119396;-72
2022/09/15 04:12:40;;;;;;;20.17;11.82;;;9.20;1.00;;;9.77;100.00;97753.66;5060271;27;130177;-72
2022/09/15 04:15:10;;;;;;;17.52;10.18;;;9.30;1.00;;;9.78;100.00;97747.09;5060967;27;129454;-73
2022/09/15 04:17:38;;;;;;;15.60;9.68;;;9.30;1.00;;;9.90;100.00;97750.50;5045151;27;122019;-72
2022/09/15 04:20:09;;;;;;;16.33;9.85;;;9.30;1.00;;;10.05;100.00;97762.50;5060641;27;121604;-72
2022/09/15 04:22:38;;;;;;;19.13;10.07;;;9.40;1.00;;;10.21;100.00;97759.78;5054630;27;130074;-72
2022/09/15 04:25:09;;;;;;;15.95;9.55;;;9.50;1.00;;;10.24;100.00;97752.88;5049432;27;129039;-73
2022/09/15 04:27:39;;;;;;;14.35;9.90;;;9.50;1.00;;;10.25;100.00;97749.00;5081860;27;120429;-72
2022/09/15 04:30:09;;;;;;;18.05;10.57;;;9.70;1.00;;;10.33;100.00;97742.66;5081652;27;120013;-73
2022/09/15 04:32:38;;;;;;;14.73;9.48;;;9.80;1.00;;;10.65;100.00;97750.72;5081610;27;130888;-72
2022/09/15 04:35:08;;;;;;;12.30;9.13;;;10.10;1.00;;;10.92;100.00;97753.59;5066326;27;128718;-72
2022/09/15 04:37:37;;;;;;;15.10;9.43;;;10.20;1.00;;;11.04;100.00;97756.19;5049800;27;119115;-75
2022/09/15 04:40:07;;;;;;;12.82;9.43;;;10.30;1.00;;;11.25;100.00;97752.31;5048878;27;119938;-72
2022/09/15 04:42:36;;;;;;;14.85;10.23;;;10.50;1.00;;;11.39;100.00;97744.47;5047523;27;128545;-71
2022/09/15 04:45:07;;;;;;;14.93;10.27;;;10.60;1.00;;;11.48;100.00;97747.72;5069022;27;129703;-74
2022/09/15 04:47:36;;;;;;;15.57;11.05;;;10.70;1.00;;;11.57;100.00;97747.47;5061001;27;119698;-72
2022/09/15 04:50:06;;;;;;;17.85;11.20;;;10.80;1.00;;;11.64;100.00;97744.09;5028849;27;119140;-73
2022/09/15 04:52:35;;;;;;;15.68;11.27;;;10.80;1.00;;;11.75;100.00;97745.09;5042440;27;130493;-72
2022/09/15 04:55:05;;;;;;;15.20;10.77;;;10.90;1.00;;;11.87;100.00;97736.78;5045201;27;129701;-72
2022/09/15 04:57:34;;;;;;;19.83;11.00;;;11.10;1.00;;;12.03;100.00;97738.59;5025923;27;119581;-72
2022/09/15 05:00:06;;;;;;;17.50;11.27;;;11.20;1.00;;;12.11;100.00;97736.78;5061436;27;119304;-73
2022/09/15 05:02:35;;;;;;;17.58;10.88;;;11.30;99.90;;;12.18;100.00;97729.50;5045336;27;128753;-73
2022/09/15 05:05:03;;;;;;;16.15;11.18;;;11.40;99.90;;;12.31;100.00;97737.47;5060408;27;130244;-74
2022/09/15 05:07:32;;;;;;;15.75;10.18;;;11.50;99.90;;;12.42;100.00;97732.97;5059060;27;122747;-73
2022/09/15 05:10:00;;;;;;;14.68;10.35;;;11.60;99.90;;;12.55;100.00;97726.16;5060497;27;122079;-73
2022/09/15 05:12:29;;;;;;;14.13;10.15;;;11.70;99.90;;;12.80;100.00;97722.97;5041919;27;129729;-75
2022/09/15 05:14:58;;;;;;;12.73;9.27;;;11.90;99.90;;;13.12;100.00;97725.34;5063953;27;129613;-74
2022/09/15 05:17:31;;;;;;;13.60;9.77;;;12.10;99.90;;;13.20;100.00;97716.06;5060679;27;119579;-74
2022/09/15 05:20:00;;;;;;;14.10;9.85;;;12.20;99.90;;;13.49;100.00;97710.94;5059502;27;119418;-74
2022/09/15 05:22:28;;;;;;;12.07;9.05;;;12.50;99.90;;;13.62;100.00;97709.53;5045242;27;130178;-75
2022/09/15 05:24:57;;;;;;;19.92;9.68;;;12.60;99.90;;;13.86;100.00;97718.31;5060417;27;129931;-73
2022/09/15 05:27:25;;;;;;;13.40;9.18;;;12.70;99.90;;;14.03;100.00;97706.75;5060156;27;119660;-74
2022/09/15 05:29:54;;;;;;;12.75;8.77;;;12.90;99.90;;;14.13;100.00;97705.28;5064811;27;119256;-74
2022/09/15 05:32:22;;;;;;;14.50;8.18;;;12.90;99.90;;;14.33;100.00;97702.28;5063958;27;129079;-73
2022/09/15 05:34:52;;;;;;;15.35;8.45;;;13.10;99.90;;;14.44;100.00;97708.59;5080634;27;130329;-73
2022/09/15 05:37:21;;;;;;;11.80;7.85;;;13.20;99.90;;;14.44;100.00;97696.88;5065612;27;119021;-73
2022/09/15 05:39:49;;;;;;;12.73;8.30;;;13.10;99.90;;;14.47;100.00;97698.84;5065581;27;119383;-73
2022/09/15 05:42:18;;;;;;;13.27;8.55;;;13.10;99.90;;;14.50;100.00;97695.38;5080166;27;129744;-73
2022/09/15 05:44:46;;;;;;;12.05;8.18;;;13.10;99.90;;;14.47;100.00;97707.81;5061606;27;129505;-73
2022/09/15 05:47:15;;;;;;;15.65;9.00;;;13.20;99.90;;;14.49;100.00;97700.06;5065517;27;119100;-73
2022/09/15 05:49:44;;;;;;;11.00;7.53;;;13.20;99.90;;;14.66;100.00;97698.63;5065907;27;119416;-75
2022/09/15 05:52:14;;;;;;;12.75;7.45;;;13.40;99.90;;;14.88;100.00;97695.97;5065534;27;129125;-74
2022/09/15 05:54:43;;;;;;;11.27;7.78;;;13.50;99.90;;;15.04;100.00;97690.97;5080238;27;129724;-74
2022/09/15 05:57:11;;;;;;;14.38;7.93;;;13.70;99.90;;;15.23;100.00;97686.34;5064174;27;120965;-74
2022/09/15 05:59:40;;;;;;;11.40;8.00;;;13.90;99.90;;;15.37;98.08;97691.06;5062206;27;122618;-74
2022/09/15 06:02:10;;;;;;;11.27;7.72;;;14.00;99.90;;;15.46;97.33;97688.72;5080340;27;129880;-74
2022/09/15 06:04:39;;;;;;;12.48;8.45;;;14.10;99.90;;;15.46;94.63;97694.97;5080182;27;129931;-73
2022/09/15 06:07:07;;;;;;;14.32;8.65;;;14.10;99.90;;;15.53;94.20;97698.88;5080459;27;120037;-75
2022/09/15 06:09:38;;;;;;;16.88;8.63;;;14.10;99.90;;;15.48;95.21;97702.00;5065351;27;119161;-74
2022/09/15 06:12:07;;;;;;;15.23;8.98;;;14.10;99.90;;;15.45;94.20;97696.13;5079787;27;129891;-74
2022/09/15 06:14:36;;;;;;;15.05;9.23;;;14.10;99.90;;;15.32;93.86;97699.59;5064869;27;129164;-73
2022/09/15 06:17:04;;;;;;;12.20;8.57;;;13.90;99.90;;;15.26;95.17;97689.06;5071132;27;120025;-73
2022/09/15 06:19:33;;;;;;;15.40;9.20;;;13.90;99.90;;;15.20;95.50;97692.56;5080310;27;119936;-74
2022/09/15 06:22:02;;;;;;;18.23;9.77;;;13.80;99.90;;;15.06;95.78;97705.00;5063430;27;128631;-72
2022/09/15 06:24:31;;;;;;;14.30;9.43;;;13.80;99.90;;;14.87;96.71;97688.94;5079839;27;129476;-75
2022/09/15 06:27:01;;;;;;;16.63;8.88;;;13.70;99.90;;;14.97;97.35;97695.63;5080474;27;120807;-73
2022/09/15 06:29:31;;;;;;;16.17;9.32;;;13.70;99.90;;;15.10;97.01;97694.88;5080541;27;119277;-73
2022/09/15 06:32:01;;;;;;;13.90;8.38;;;13.80;99.90;;;15.22;97.01;97696.50;5064673;27;130243;-74
2022/09/15 06:34:31;;;;;;;16.23;8.63;;;13.90;99.90;;;15.37;95.77;97686.34;5083065;27;130126;-72
2022/09/15 06:37:00;;;;;;;17.67;8.38;;;14.00;99.90;;;15.52;94.65;97700.03;5083438;27;119550;-73
2022/09/15 06:39:29;;;;;;;16.13;8.30;;;14.20;99.90;;;15.80;92.82;97686.44;5083875;27;119808;-75
2022/09/15 06:41:57;;;;;;;12.50;8.50;;;14.40;99.90;;;16.14;91.07;97677.84;5082802;27;130546;-73
2022/09/15 06:44:31;;;;;;;13.82;7.78;;;14.70;91.70;;;16.46;89.38;97676.97;5064934;27;129521;-73
2022/09/15 06:46:59;;;;;;;11.93;7.00;;;14.90;91.80;;;16.64;87.17;97676.16;5084611;27;122003;-75
2022/09/15 06:49:28;;;;;;;11.82;6.53;;;15.00;72.70;;;16.78;84.84;97680.78;5083102;27;121968;-72
2022/09/15 06:51:56;;;;;;;9.52;5.85;;;15.20;44.80;;;17.06;83.75;97682.66;5082678;27;130377;-72
2022/09/15 06:54:25;;;;;;;10.32;6.07;;;15.50;31.80;;;17.21;82.01;97675.94;5067652;27;129042;-73
2022/09/15 06:56:54;;;;;;;11.30;5.68;;;15.60;21.10;;;17.27;81.43;97675.53;5083107;27;119908;-74
2022/09/15 06:59:23;;;;;;;10.93;5.72;;;15.70;16.20;;;17.32;81.00;97669.59;5082948;27;119275;-73
2022/09/15 07:01:55;;;;;;;13.32;6.65;;;15.70;15.90;;;17.41;80.73;97678.94;5083005;27;129970;-75
2022/09/15 07:04:23;;;;;;;10.18;5.38;;;15.70;14.80;;;17.49;79.39;97676.16;5068004;27;128874;-72
2022/09/15 07:06:51;;;;;;;10.13;5.28;;;15.60;10.60;;;17.51;79.18;97680.03;5067862;27;119874;-73
2022/09/15 07:09:20;;;;;;;11.13;5.03;;;15.60;8.60;;;17.53;80.04;97677.69;5082816;27;119505;-71
2022/09/15 07:11:49;;;;;;;10.95;6.03;;;15.70;14.00;;;17.40;78.76;97679.34;5081395;27;130028;-72
2022/09/15 07:14:18;;;;;;;10.60;5.40;;;15.50;4.90;;;17.18;79.07;97673.22;5082664;27;130086;-72
2022/09/15 07:16:46;;;;;;;10.68;5.88;;;15.40;6.50;;;17.21;78.82;97681.41;5067688;27;118877;-73
2022/09/15 07:19:17;;;;;;;8.95;5.55;;;15.50;2.80;;;17.45;78.39;97681.66;5083189;27;119984;-76
2022/09/15 07:21:46;;;;;;;11.05;5.35;;;15.70;1.00;;;17.68;77.57;97683.09;5082429;27;129998;-73
2022/09/15 07:24:14;;;;;;;9.38;4.75;;;15.80;1.00;;;17.85;76.65;97687.66;5082278;27;130721;-73
2022/09/15 07:26:43;;;;;;;10.02;5.20;;;16.00;1.00;;;17.97;75.59;97680.94;5083007;27;120359;-72
2022/09/15 07:29:12;;;;;;;9.57;5.60;;;16.20;1.00;;;18.13;75.91;97680.38;5067955;27;119050;-73
2022/09/15 07:31:41;;;;;;;8.77;5.63;;;16.30;1.00;;;18.28;75.13;97676.31;5082473;27;130315;-73
2022/09/15 07:34:09;;;;;;;9.77;5.13;;;16.50;1.00;;;18.29;75.18;97666.91;5082469;27;129535;-73
2022/09/15 07:36:39;;;;;;;9.93;5.53;;;16.40;1.00;;;18.28;74.50;97670.84;5081352;27;122733;-72
2022/09/15 07:39:08;;;;;;;10.23;5.35;;;16.20;1.00;;;18.46;75.29;97678.09;5083015;27;123036;-75
2022/09/15 07:41:38;;;;;;;9.52;4.68;;;16.40;1.00;;;18.55;73.58;97680.38;5081276;27;129779;-73
2022/09/15 07:44:08;;;;;;;9.00;4.65;;;16.60;1.00;;;18.73;72.86;97677.41;5067033;27;129175;-73
2022/09/15 07:46:36;;;;;;;7.30;4.28;;;16.70;1.00;;;18.68;71.49;97673.94;5084738;27;119942;-71
2022/09/15 07:49:07;;;;;;;7.78;4.28;;;16.70;1.00;;;18.81;71.55;97676.16;5082201;27;119807;-72
2022/09/15 07:51:35;;;;;;;8.23;3.95;;;16.90;1.00;;;19.04;70.38;97679.03;5082036;27;130044;-73
2022/09/15 07:54:05;;;;;;;7.25;3.63;;;17.10;1.00;;;19.14;68.90;97682.06;5081552;27;129962;-74
2022/09/15 07:56:34;;;;;;;6.63;3.60;;;17.20;1.00;;;19.42;68.58;97685.59;5080791;27;119494;-74
2022/09/15 07:59:02;;;;;;;10.07;4.40;;;17.50;1.00;;;19.65;67.16;97688.41;5043205;27;118942;-76
2022/09/15 08:01:31;;;;;;;9.73;4.20;;;17.80;1.00;;;19.89;65.78;97680.97;5079435;27;131285;-74
2022/09/15 08:03:59;;;;;;;13.77;5.22;;;17.90;1.00;;;19.53;66.49;97686.22;5080422;27;129718;-71
2022/09/15 08:06:28;;;;;;;10.75;4.50;;;17.40;1.00;;;19.75;66.59;97681.94;5080686;27;118906;-72
2022/09/15 08:08:57;;;;;;;10.57;4.95;;;17.60;1.00;;;19.72;65.81;97685.53;5056721;27;119421;-70
2022/09/15 08:11:27;;;;;;;10.38;5.05;;;17.40;1.00;;;19.92;66.61;97679.34;5080156;27;129629;-72
2022/09/15 08:13:55;;;;;;;7.72;4.80;;;17.80;1.00;;;20.11;66.65;97677.84;5080034;27;130869;-75
2022/09/15 08:16:25;;;;;;;8.50;4.38;;;18.10;1.00;;;20.14;66.55;97679.00;5080290;27;119638;-72
2022/09/15 08:18:55;;;;;;;8.95;5.10;;;18.00;1.00;;;20.09;65.71;97672.00;5081246;27;119526;-74
2022/09/15 08:21:24;;;;;;;8.55;4.85;;;18.00;1.00;;;19.78;67.51;97683.13;5063203;27;129779;-72
2022/09/15 08:23:55;;;;;;;8.75;4.95;;;17.90;1.00;;;19.86;68.07;97676.28;5079935;27;130759;-73
2022/09/15 08:26:25;;;;;;;8.63;4.68;;;17.90;1.00;;;20.09;67.76;97678.28;5065509;27;122072;-71
2022/09/15 08:28:56;;;;;;;7.25;4.88;;;18.00;1.00;;;20.35;66.56;97667.59;5081888;27;121688;-72
2022/09/15 08:31:25;;;;;;;8.02;4.85;;;18.20;1.00;;;20.59;65.15;97670.31;5081140;27;131233;-72
2022/09/15 08:33:55;;;;;;;8.80;4.85;;;18.40;1.00;;;20.61;65.07;97665.13;5081297;27;129497;-73
2022/09/15 08:36:26;;;;;;;9.40;5.30;;;18.10;1.00;;;20.79;64.71;97668.34;5081550;27;119613;-72
2022/09/15 08:38:55;;;;;;;8.55;5.13;;;18.50;1.00;;;20.93;64.25;97663.75;5080333;27;119748;-72
2022/09/15 08:41:28;;;;;;;11.27;4.72;;;18.60;1.00;;;21.07;63.86;97666.22;5065724;27;129674;-72
2022/09/15 08:44:06;;;;;;;8.05;5.10;;;18.70;1.00;;;20.91;63.13;97663.38;5078321;27;129772;-74
2022/09/15 08:46:43;;;;;;;11.23;4.72;;;18.60;1.00;;;20.82;63.90;97661.22;5081675;27;120323;-73
2022/09/15 08:49:16;;;;;;;;;;;18.50;1.00;;;20.79;63.51;97662.84;5066184;27;118553;-74
2022/09/15 08:51:49;;;;;;;9.02;4.60;;;18.70;1.00;;;21.12;62.36;97654.66;5079451;27;130237;-73
2022/09/15 08:54:23;;;;;;;11.85;5.20;;;18.70;1.00;;;21.15;61.00;97656.56;5080299;27;129559;-73
2022/09/15 08:56:53;;;;;;;8.63;4.75;;;18.90;1.00;;;;;;5080796;27;120092;-76
2022/09/15 08:59:25;;;;;;;8.73;4.25;;;18.60;1.00;;;20.96;61.59;97649.91;5080933;27;119635;-72
2022/09/15 09:02:47;;;;;;;8.90;4.53;;;18.60;1.00;;;20.82;60.21;97656.47;5080251;27;130302;-73
2022/09/15 09:05:31;;;;;;;8.48;4.00;;;18.50;1.00;;;21.01;59.43;97649.38;5080301;27;130775;-72
2022/09/15 09:08:35;;;;;;;10.30;4.10;;;18.70;1.00;;;21.07;59.41;97649.66;5081339;27;119920;-73
2022/09/15 09:11:15;;;;;;;6.45;4.00;;;18.80;1.00;;;21.01;59.30;97662.41;5084534;27;120001;-71
2022/09/15 09:13:52;;;;;;;10.50;3.70;;;18.70;1.00;;;21.03;60.16;97637.94;5065625;27;130028;-74
2022/09/15 09:16:53;;;;;;;8.20;3.80;;;18.90;1.00;;;21.00;58.05;97649.81;5080776;27;129531;-72
2022/09/15 09:19:44;;;;;;;7.65;4.30;;;18.90;1.00;;;21.48;57.88;97651.09;5061070;27;122256;-74
2022/09/15 09:22:18;;;;;;;6.47;3.97;;;19.10;1.00;;;21.65;59.12;97638.13;5065496;27;120952;-74
2022/09/15 09:24:51;;;;;;;8.98;4.30;;;19.30;1.00;;;21.28;57.84;97625.56;5065240;27;128983;-71
2022/09/15 09:27:24;;;;;;;10.07;4.10;;;19.00;1.00;;;20.42;59.32;97634.41;5080296;27;129933;-71
2022/09/15 09:30:01;;;;;;;9.18;4.47;;;18.20;1.00;;;20.21;59.98;97629.28;5065488;27;118823;-70
2022/09/15 09:32:42;;;;;;;11.43;4.93;;;17.90;1.00;;;20.34;60.98;97626.72;5065525;27;119124;-72
2022/09/15 09:35:24;;;;;;;7.93;3.95;;;18.00;1.00;;;20.75;60.03;97633.78;5080816;27;130872;-71
2022/09/15 09:37:53;;;;;;;7.28;3.83;;;18.60;1.00;;;21.02;59.70;97636.41;5081159;27;129973;-72
2022/09/15 09:40:22;;;;;;;10.73;3.78;;;19.00;1.00;;;21.42;58.29;97630.75;5080684;27;119759;-71
2022/09/15 09:42:51;;;;;;;8.95;3.38;;;19.30;1.00;;;21.60;56.71;97635.09;5080615;27;119350;-72
2022/09/15 09:45:21;;;;;;;9.55;3.50;;;19.40;1.00;;;21.69;55.70;97633.31;5079491;27;130022;-71
2022/09/15 09:47:52;;;;;;;7.85;4.00;;;19.30;1.00;;;21.46;57.63;97631.44;5080235;27;130535;-71
2022/09/15 09:50:37;;;;;;;7.53;3.90;;;19.10;1.00;;;21.12;56.05;97624.34;5080333;27;119889;-70
2022/09/15 09:53:29;;;;;;;10.27;3.97;;;18.70;1.00;;;21.23;55.25;97607.53;5065149;27;118900;-70
2022/09/15 09:56:18;;;;;;;8.77;3.47;;;18.80;1.00;;;21.26;56.04;97619.72;5080214;27;130639;-70
2022/09/15 09:58:47;;;;;;;10.02;3.90;;;18.90;1.00;;;21.43;55.06;97621.28;5079830;27;130201;-69
2022/09/15 10:01:18;;;;;;;8.60;3.72;;;18.90;1.00;;;21.69;54.57;97622.25;5080326;27;120350;-72
2022/09/15 10:03:48;;;;;;;8.40;3.38;;;18.90;1.00;;;21.53;54.86;97617.53;5080761;27;119257;-72
2022/09/15 10:06:21;;;;;;;12.15;4.07;;;19.30;1.00;;;21.88;54.77;97623.38;5064686;27;130549;-73
2022/09/15 10:08:56;;;;;;;7.50;3.30;;;19.50;1.00;;;21.95;52.15;97621.63;5083908;27;129581;-74
2022/09/15 10:11:40;;;;;;;;;;;19.70;1.00;;;21.50;53.36;97626.66;5083186;27;122163;-71
2022/09/15 10:14:22;;;;;;;10.10;3.45;;;19.70;1.00;;;21.42;53.68;97625.22;5068892;27;121161;-70
2022/09/15 10:17:00;;;;;;;8.75;3.45;;;19.10;1.00;;;21.62;52.88;97632.69;5083416;27;131084;-72
2022/09/15 10:19:35;;;;;;;9.70;3.20;;;19.40;1.00;;;22.00;51.94;97621.09;5068166;27;129331;-73
2022/09/15 10:22:04;;;;;;;7.47;3.40;;;19.70;1.00;;;21.45;51.17;97626.38;5084033;27;119235;-74
2022/09/15 10:24:39;;;;;;;10.73;3.95;;;19.30;1.00;;;20.87;53.83;97618.59;5083903;27;119683;-74
2022/09/15 10:27:25;;;;;;;9.25;3.35;;;18.90;1.00;;;20.31;55.42;97622.81;5083065;27;130344;-71
2022/09/15 10:29:54;;;;;;;7.90;3.00;;;18.50;1.00;;;20.02;56.21;97633.56;5083583;27;129305;-72
2022/09/15 10:32:29;;;;;;;11.43;3.70;;;18.20;1.00;;;19.90;56.29;97623.97;5083614;27;119569;-72